METAR for South-East England East Anglia Midlands and Wales - 23 Oct 2017 - 0948 UTC - RocketRoute WX - rrwx.com
EGKB 230920Z 20012KT 7000 3500SE BKN005 13/12 Q1018 EGBB 230920Z 19006KT 9999 SCT009 SCT024 12/12 Q1015 EGHH 230920Z 23011KT 3000 -RA BR BKN004 15/14 Q1017 EGVN 230850Z 21005KT 9999 OVC008 13/12 Q1016 TEMPO 6000 -RADZ SCT006 EGSC 230920Z 20008KT 9999 FEW020 BKN040 12/10 Q1017 EGFF 230920Z AUTO 25006KT 9999 OVC012 15/14 Q1015 EGBE   EGTC 230920Z 21013KT 9999 BKN011 BKN032 13/12 Q1016 EGYD 230850Z 18009KT 9999 FEW006 BKN100 11/09 Q1015 BLU BECMG BKN010 GRN EGNX 230920Z 20011KT 9999 SCT007 BKN030 12/11 Q1015 EGVA 230941Z AUTO 20008KT 9999 OVC008 14/13 A2999 RMK AO2 CIG 007 RWY09 SLP159 $ EGLF 230920Z 20009KT 5000 -RADZ BKN005 13/13 Q1017 EGBJ 230920Z 21006KT 9999 SCT009 BKN010 15/13 Q1015 EGSD   EGNR 230920Z 15009KT 9000 VCSH SCT006 SCT030 13/12 Q1013 EGNJ 230920Z 20012KT 9999 FEW035 11/10 Q1015 EGGW 230920Z AUTO 19006KT 160V220 9000 OVC004 11/10 Q1017 EGLC 230920Z AUTO 22007KT 190V290 9999 BKN013 BKN036 OVC048 14/11 Q1018 EGKK 230920Z 21006KT 6000 -DZRA BKN005 14/13 Q1018 REDZ EGLL 230920Z AUTO 20008KT 160V250 9999 BKN007 OVC025 13/12 Q1017 TEMPO 4000 -RADZ EGSS 230920Z AUTO 20007KT 9999 BKN010 OVC023 12/10 Q1018 EGMD 230920Z 23011KT 9999 FEW015 BKN023 BKN037 14/13 Q1019 EGMH   EGYM 230850Z 18006KT 9999 BKN040 11/09 Q1017 BLU NOSIG EGSH 230920Z 23010KT 9999 FEW020 SCT041 12/10 Q1017 NOSIG EGOS 230850Z 18012KT 9999 FEW014 BKN018 BKN040 12/11 Q1014 WHT BECMG SCT012 GRN EGKA 230920Z 23011KT 2500 -RADZ BKN004 14/13 Q1018 EGHI 230920Z 20008KT 170V230 6000 -RADZ BKN005 14/13 Q1017 EGMC 230920Z 20006KT 9999 FEW023 BKN035 12/09 Q1018 EGOV 230930Z 19013KT 9999 FEW003 OVC005 15/14 Q1012 YLO1 BECMG FEW010 BLU EGXW 230909Z 18008KT 9999 -RA SCT008 SCT050 BKN120 11/10 Q1015 GRN NOSIG EGUW 230850Z 25009KT CAVOK 11/09 Q1017 BLU NOSIG EGXT 230924Z 20009KT 9999 SCT009 SCT035 BKN041 11/11 Q1015 GRN

RocketRoute WX - rrwx.com weather for pilots